createdAt,value
2018-07-07T00:00:37.964Z,16.10
2018-07-07T00:05:36.753Z,16.20
2018-07-07T00:08:06.549Z,16.20
2018-07-07T00:10:35.993Z,16.30
2018-07-07T00:13:05.454Z,16.20
2018-07-07T00:15:34.830Z,16.10
2018-07-07T00:18:04.211Z,16.00
2018-07-07T00:20:33.612Z,15.80
2018-07-07T00:25:31.908Z,15.70
2018-07-07T00:28:01.303Z,15.80
2018-07-07T00:30:30.651Z,15.90
2018-07-07T00:33:00.023Z,15.80
2018-07-07T00:35:29.408Z,15.70
2018-07-07T00:37:58.774Z,15.70
2018-07-07T00:40:28.176Z,15.90
2018-07-07T00:42:57.527Z,15.80
2018-07-07T00:45:26.890Z,15.80
2018-07-07T00:47:56.255Z,15.70
2018-07-07T00:50:25.652Z,15.70
2018-07-07T00:52:55.100Z,15.70
2018-07-07T00:55:24.463Z,15.80
2018-07-07T00:57:53.816Z,16.00
2018-07-07T01:00:23.230Z,16.10
2018-07-07T01:02:52.625Z,16.10
2018-07-07T01:05:38.397Z,16.00
2018-07-07T01:08:07.774Z,15.70
2018-07-07T01:10:37.152Z,15.70
2018-07-07T01:13:06.543Z,15.70
2018-07-07T01:15:35.939Z,15.50
2018-07-07T01:18:05.334Z,15.60
2018-07-07T01:20:34.795Z,15.60
2018-07-07T01:23:04.160Z,15.50
2018-07-07T01:25:33.526Z,15.40
2018-07-07T01:28:02.878Z,15.40
2018-07-07T01:30:32.238Z,15.40
2018-07-07T01:33:01.613Z,15.50
2018-07-07T01:35:30.971Z,15.50
2018-07-07T01:38:00.409Z,15.70
2018-07-07T01:40:29.928Z,15.70
2018-07-07T01:42:59.290Z,15.70
2018-07-07T01:45:28.630Z,15.60
2018-07-07T01:50:26.932Z,15.30
2018-07-07T01:52:56.322Z,15.40
2018-07-07T01:55:25.705Z,15.40
2018-07-07T01:57:55.112Z,15.20
2018-07-07T02:02:53.441Z,15.30
2018-07-07T02:05:22.847Z,15.30
2018-07-07T02:07:52.243Z,15.40
2018-07-07T02:10:21.641Z,15.40
2018-07-07T02:12:51.100Z,15.40
2018-07-07T02:15:20.444Z,15.40
2018-07-07T02:17:49.825Z,15.30
2018-07-07T02:20:19.147Z,15.20
2018-07-07T02:27:46.508Z,15.10
2018-07-07T02:30:15.884Z,15.10
2018-07-07T02:32:45.281Z,15.20
2018-07-07T02:35:14.631Z,15.20
2018-07-07T02:37:43.980Z,15.20
2018-07-07T02:40:13.360Z,14.90
2018-07-07T02:42:42.878Z,14.90
2018-07-07T02:45:12.244Z,14.80
2018-07-07T02:47:41.610Z,14.80
2018-07-07T02:50:11.004Z,14.70
2018-07-07T02:52:40.375Z,14.80
2018-07-07T02:55:09.772Z,15.00
2018-07-07T02:57:39.121Z,14.90
2018-07-07T03:00:08.553Z,14.80
2018-07-07T03:02:37.953Z,14.70
2018-07-07T03:05:07.348Z,14.80
2018-07-07T03:07:36.685Z,14.70
2018-07-07T03:10:06.044Z,14.80
2018-07-07T03:12:35.502Z,14.90
2018-07-07T03:15:04.812Z,14.80
2018-07-07T03:17:34.175Z,14.90
2018-07-07T03:20:03.546Z,14.70
2018-07-07T03:22:32.868Z,14.70
2018-07-07T03:25:02.219Z,14.80
2018-07-07T03:27:31.688Z,14.60
2018-07-07T03:30:01.040Z,14.40
2018-07-07T03:32:30.375Z,14.60
2018-07-07T03:34:59.731Z,14.60
2018-07-07T03:37:29.116Z,14.60
2018-07-07T03:42:27.438Z,14.70
2018-07-07T03:44:56.760Z,14.70
2018-07-07T03:47:26.138Z,14.70
2018-07-07T03:49:55.484Z,14.70
2018-07-07T03:52:24.837Z,14.70
2018-07-07T03:54:54.191Z,14.80
2018-07-07T03:59:52.428Z,14.80
2018-07-07T04:02:21.787Z,14.70
2018-07-07T04:04:51.118Z,14.80
2018-07-07T04:07:20.538Z,14.90
2018-07-07T04:09:49.808Z,14.90
2018-07-07T04:12:19.150Z,14.90
2018-07-07T04:14:48.459Z,14.90
2018-07-07T04:17:17.788Z,14.60
2018-07-07T04:19:47.117Z,14.50
2018-07-07T04:22:16.680Z,14.80
2018-07-07T04:24:45.999Z,15.00
2018-07-07T04:27:15.396Z,15.00
2018-07-07T04:29:44.749Z,14.90
2018-07-07T04:34:42.966Z,14.90
2018-07-07T04:37:12.328Z,14.90
2018-07-07T04:39:41.939Z,15.20
2018-07-07T04:42:11.289Z,15.20
2018-07-07T04:44:40.968Z,15.30
2018-07-07T04:47:10.336Z,15.40
2018-07-07T04:49:39.968Z,15.50
2018-07-07T04:52:09.358Z,15.50
2018-07-07T04:54:38.693Z,15.70
2018-07-07T04:57:08.088Z,15.80
2018-07-07T04:59:37.712Z,15.80
2018-07-07T05:02:07.137Z,16.00
2018-07-07T05:04:36.559Z,16.10
2018-07-07T05:07:05.894Z,16.30
2018-07-07T05:09:35.260Z,16.40
2018-07-07T05:12:04.968Z,16.60
2018-07-07T05:14:34.333Z,16.70
2018-07-07T05:17:03.702Z,16.70
2018-07-07T05:19:33.067Z,16.90
2018-07-07T05:22:02.432Z,17.40
2018-07-07T05:24:31.807Z,17.70
2018-07-07T05:29:30.057Z,17.90
2018-07-07T05:31:59.863Z,18.00
2018-07-07T05:34:30.074Z,18.00
2018-07-07T05:36:59.408Z,18.00
2018-07-07T05:39:28.776Z,18.20
2018-07-07T05:41:58.128Z,18.30
2018-07-07T05:44:27.473Z,18.60
2018-07-07T05:46:56.832Z,18.70
2018-07-07T05:49:26.171Z,18.60
2018-07-07T05:51:55.745Z,18.90
2018-07-07T05:54:25.162Z,19.30
2018-07-07T05:56:54.511Z,19.60
2018-07-07T05:59:23.835Z,19.60
2018-07-07T06:01:53.212Z,19.90
2018-07-07T06:04:22.626Z,19.70
2018-07-07T06:06:51.969Z,19.30
2018-07-07T06:09:21.294Z,19.30
2018-07-07T06:11:50.615Z,19.50
2018-07-07T06:14:20.014Z,19.60
2018-07-07T06:16:49.351Z,20.00
2018-07-07T06:19:18.663Z,20.10
2018-07-07T06:21:48.027Z,20.60
2018-07-07T06:24:17.459Z,21.00
2018-07-07T06:26:46.878Z,21.20
2018-07-07T06:29:16.159Z,21.30
2018-07-07T06:31:45.487Z,21.40
2018-07-07T06:34:14.810Z,21.50
2018-07-07T06:36:44.176Z,21.50
2018-07-07T06:39:13.601Z,21.70
2018-07-07T06:44:11.836Z,22.10
2018-07-07T06:46:41.165Z,22.10
2018-07-07T06:49:10.476Z,22.10
2018-07-07T06:51:39.835Z,22.20
2018-07-07T06:54:09.128Z,22.50
2018-07-07T06:56:38.468Z,22.60
2018-07-07T06:59:07.820Z,22.80
2018-07-07T07:01:37.584Z,22.60
2018-07-07T07:04:06.939Z,22.70
2018-07-07T07:06:36.286Z,23.00
2018-07-07T07:09:07.475Z,23.00
2018-07-07T07:11:36.816Z,22.70
2018-07-07T07:14:06.277Z,22.30
2018-07-07T07:16:35.568Z,22.60
2018-07-07T07:19:04.896Z,22.90
2018-07-07T07:21:34.214Z,23.20
2018-07-07T07:24:03.582Z,23.10
2018-07-07T07:26:32.924Z,23.30
2018-07-07T07:29:02.474Z,23.20
2018-07-07T07:31:31.836Z,23.30
2018-07-07T07:34:01.196Z,23.40
2018-07-07T07:36:41.155Z,23.60
2018-07-07T07:39:10.498Z,23.80
2018-07-07T07:41:39.832Z,23.90
2018-07-07T07:44:09.201Z,24.00
2018-07-07T07:46:38.542Z,24.10
2018-07-07T07:49:08.624Z,24.20
2018-07-07T07:51:37.951Z,24.30
2018-07-07T07:54:07.302Z,24.70
2018-07-07T07:56:36.613Z,24.80
2018-07-07T07:59:06.025Z,24.90
2018-07-07T08:01:35.351Z,24.90
2018-07-07T08:04:04.724Z,25.10
2018-07-07T08:06:34.051Z,25.20
2018-07-07T08:09:03.491Z,25.10
2018-07-07T08:11:32.839Z,25.20
2018-07-07T08:14:02.222Z,25.50
2018-07-07T08:16:31.516Z,25.20
2018-07-07T08:19:00.853Z,25.60
2018-07-07T08:23:59.033Z,24.30
2018-07-07T08:26:28.407Z,24.10
2018-07-07T08:28:57.749Z,23.40
2018-07-07T08:31:27.135Z,23.30
2018-07-07T08:33:56.451Z,23.30
2018-07-07T08:36:25.819Z,23.60
2018-07-07T08:38:55.137Z,24.00
2018-07-07T08:41:25.793Z,24.50
2018-07-07T08:46:24.024Z,25.10
2018-07-07T08:48:53.334Z,25.30
2018-07-07T08:51:22.695Z,25.10
2018-07-07T08:53:52.032Z,25.20
2018-07-07T08:56:21.407Z,25.50
2018-07-07T08:58:51.754Z,25.80
2018-07-07T09:01:21.119Z,25.90
2018-07-07T09:03:50.458Z,25.60
2018-07-07T09:06:19.804Z,25.50
2018-07-07T09:08:49.349Z,25.70
2018-07-07T09:11:18.765Z,25.70
2018-07-07T09:13:48.091Z,25.50
2018-07-07T09:16:17.512Z,25.30
2018-07-07T09:18:46.924Z,25.20
2018-07-07T09:21:16.277Z,25.60
2018-07-07T09:23:45.603Z,24.90
2018-07-07T09:28:43.883Z,25.90
2018-07-07T09:31:14.507Z,25.90
2018-07-07T09:33:43.811Z,25.10
2018-07-07T09:36:13.141Z,25.10
2018-07-07T09:38:42.483Z,24.90
2018-07-07T09:41:11.816Z,26.00
2018-07-07T09:43:41.199Z,26.30
2018-07-07T09:46:10.555Z,26.30
2018-07-07T09:48:39.891Z,26.30
2018-07-07T09:51:09.341Z,26.00
2018-07-07T09:53:38.706Z,26.20
2018-07-07T09:56:08.064Z,27.20
2018-07-07T09:58:37.432Z,27.80
2018-07-07T10:01:06.761Z,27.40
2018-07-07T10:03:36.172Z,27.40
2018-07-07T10:06:05.535Z,26.90
2018-07-07T10:08:34.874Z,27.00
2018-07-07T10:11:04.365Z,27.40
2018-07-07T10:13:33.773Z,27.00
2018-07-07T10:16:03.096Z,26.90
2018-07-07T10:18:32.469Z,26.10
2018-07-07T10:21:01.808Z,26.10
2018-07-07T10:23:31.204Z,26.40
2018-07-07T10:26:00.558Z,26.80
2018-07-07T10:28:29.931Z,26.40
2018-07-07T10:30:59.258Z,26.80
2018-07-07T10:33:28.576Z,27.50
2018-07-07T10:35:57.976Z,28.20
2018-07-07T10:38:27.432Z,28.10
2018-07-07T10:40:56.802Z,28.30
2018-07-07T10:43:26.143Z,28.10
2018-07-07T10:45:55.670Z,27.90
2018-07-07T10:48:24.917Z,28.30
2018-07-07T10:50:54.272Z,28.50
2018-07-07T10:53:23.592Z,28.90
2018-07-07T10:55:52.959Z,29.00
2018-07-07T10:58:22.266Z,29.00
2018-07-07T11:00:51.657Z,28.80
2018-07-07T11:03:21.008Z,28.70
2018-07-07T11:05:50.399Z,28.70
2018-07-07T11:08:19.715Z,28.30
2018-07-07T11:10:49.131Z,28.70
2018-07-07T11:15:47.587Z,29.10
2018-07-07T11:18:17.276Z,28.70
2018-07-07T11:20:47.151Z,28.70
2018-07-07T11:23:16.515Z,28.60
2018-07-07T11:25:45.888Z,28.80
2018-07-07T11:28:15.206Z,28.80
2018-07-07T11:30:44.589Z,29.10
2018-07-07T11:33:14.316Z,28.00
2018-07-07T11:35:43.700Z,27.90
2018-07-07T11:38:13.033Z,28.50
2018-07-07T11:40:42.443Z,29.00
2018-07-07T11:43:11.744Z,29.50
2018-07-07T11:45:41.169Z,29.40
2018-07-07T11:50:39.399Z,28.40
2018-07-07T11:53:08.716Z,28.90
2018-07-07T11:55:38.098Z,28.80
2018-07-07T11:58:07.406Z,29.10
2018-07-07T12:00:36.863Z,29.10
2018-07-07T12:03:06.384Z,29.30
2018-07-07T12:05:35.759Z,29.80
2018-07-07T12:08:13.873Z,29.00
2018-07-07T12:10:34.743Z,29.30
2018-07-07T12:13:04.056Z,29.00
2018-07-07T12:15:33.402Z,29.20
2018-07-07T12:18:03.078Z,29.20
2018-07-07T12:20:32.423Z,29.10
2018-07-07T12:23:02.560Z,28.70
2018-07-07T12:25:31.904Z,29.40
2018-07-07T12:28:01.233Z,30.30
2018-07-07T12:30:30.671Z,30.60
2018-07-07T12:33:00.013Z,30.00
2018-07-07T12:35:29.355Z,29.70
2018-07-07T12:37:58.663Z,28.90
2018-07-07T12:40:28.117Z,29.90
2018-07-07T12:42:57.394Z,29.60
2018-07-07T12:45:26.769Z,29.60
2018-07-07T12:47:56.086Z,29.30
2018-07-07T12:50:25.443Z,29.00
2018-07-07T12:52:54.767Z,29.10
2018-07-07T12:55:24.111Z,29.10
2018-07-07T12:57:53.443Z,29.40
2018-07-07T13:00:22.784Z,29.90
2018-07-07T13:02:52.432Z,30.30
2018-07-07T13:05:21.834Z,29.50
2018-07-07T13:07:51.173Z,29.00
2018-07-07T13:10:20.524Z,28.60
2018-07-07T13:12:49.872Z,28.40
2018-07-07T13:15:19.212Z,29.00
2018-07-07T13:17:48.555Z,29.10
2018-07-07T13:20:17.934Z,29.50
2018-07-07T13:22:47.267Z,29.90
2018-07-07T13:25:16.595Z,29.60
2018-07-07T13:27:45.972Z,29.60
2018-07-07T13:30:15.299Z,29.70
2018-07-07T13:32:44.712Z,29.50
2018-07-07T13:35:14.063Z,29.10
2018-07-07T13:40:12.380Z,29.00
2018-07-07T13:42:41.800Z,28.90
2018-07-07T13:45:11.123Z,28.70
2018-07-07T13:47:40.495Z,28.60
2018-07-07T13:50:09.801Z,28.70
2018-07-07T13:52:39.177Z,28.70
2018-07-07T13:57:37.899Z,28.30
2018-07-07T14:00:07.260Z,28.10
2018-07-07T14:02:36.728Z,28.00
2018-07-07T14:05:06.901Z,28.00
2018-07-07T14:07:36.307Z,27.90
2018-07-07T14:10:05.892Z,27.60
2018-07-07T14:12:35.372Z,27.20
2018-07-07T14:15:04.759Z,27.50
2018-07-07T14:17:34.233Z,27.60
2018-07-07T14:20:03.591Z,27.60
2018-07-07T14:22:32.979Z,27.50
2018-07-07T14:25:02.316Z,27.50
2018-07-07T14:27:31.697Z,27.60
2018-07-07T14:30:01.027Z,27.50
2018-07-07T14:32:30.407Z,27.60
2018-07-07T14:37:28.614Z,27.40
2018-07-07T14:40:00.795Z,27.20
2018-07-07T14:42:44.894Z,27.10
2018-07-07T14:45:17.549Z,27.00
2018-07-07T14:47:49.051Z,27.00
2018-07-07T14:50:18.877Z,27.00
2018-07-07T14:52:48.623Z,27.00
2018-07-07T14:55:19.278Z,26.80
2018-07-07T14:57:48.854Z,26.70
2018-07-07T15:00:21.319Z,26.80
2018-07-07T15:02:51.842Z,26.90
2018-07-07T15:05:21.187Z,26.80
2018-07-07T15:07:50.638Z,26.60
2018-07-07T15:10:20.117Z,26.70
2018-07-07T15:12:49.700Z,26.50
2018-07-07T15:15:19.333Z,26.50
2018-07-07T15:17:48.761Z,26.40
2018-07-07T15:20:18.071Z,26.40
2018-07-07T15:22:47.549Z,26.30
2018-07-07T15:25:16.796Z,26.20
2018-07-07T15:27:46.153Z,26.20
2018-07-07T15:30:15.467Z,26.10
2018-07-07T15:32:44.833Z,26.00
2018-07-07T15:35:14.146Z,26.00
2018-07-07T15:37:43.516Z,26.10
2018-07-07T15:40:12.882Z,26.10
2018-07-07T15:42:42.223Z,26.00
2018-07-07T15:45:11.526Z,25.90
2018-07-07T15:47:40.890Z,26.10
2018-07-07T15:50:10.192Z,26.00
2018-07-07T15:52:39.568Z,26.00
2018-07-07T15:55:08.894Z,26.00
2018-07-07T15:57:38.265Z,25.90
2018-07-07T16:00:09.175Z,25.80
2018-07-07T16:02:38.566Z,25.80
2018-07-07T16:05:07.923Z,25.80
2018-07-07T16:10:06.280Z,25.70
2018-07-07T16:12:35.690Z,25.60
2018-07-07T16:15:05.399Z,25.50
2018-07-07T16:17:35.686Z,25.60
2018-07-07T16:20:05.031Z,25.60
2018-07-07T16:22:34.389Z,25.50
2018-07-07T16:25:03.709Z,25.50
2018-07-07T16:27:33.068Z,25.40
2018-07-07T16:30:02.776Z,25.50
2018-07-07T16:32:32.155Z,25.40
2018-07-07T16:35:01.522Z,25.40
2018-07-07T16:37:31.761Z,25.40
2018-07-07T16:40:01.113Z,25.30
2018-07-07T16:42:30.512Z,25.30
2018-07-07T16:45:00.293Z,25.20
2018-07-07T16:47:29.683Z,25.10
2018-07-07T16:49:59.028Z,25.10
2018-07-07T16:52:28.765Z,25.20
2018-07-07T16:54:58.216Z,25.20
2018-07-07T16:57:27.603Z,25.20
2018-07-07T16:59:56.961Z,25.20
2018-07-07T17:02:26.369Z,25.20
2018-07-07T17:04:55.720Z,25.10
2018-07-07T17:09:53.938Z,25.10
2018-07-07T17:12:23.580Z,25.10
2018-07-07T17:14:52.900Z,25.10
2018-07-07T17:17:22.967Z,25.00
2018-07-07T17:19:52.302Z,25.10
2018-07-07T17:22:22.099Z,25.10
2018-07-07T17:24:51.739Z,25.00
2018-07-07T17:27:21.127Z,25.00
2018-07-07T17:29:50.487Z,25.00
2018-07-07T17:32:20.035Z,25.00
2018-07-07T17:34:49.751Z,24.90
2018-07-07T17:37:19.542Z,24.90
2018-07-07T17:39:49.039Z,24.80
2018-07-07T17:42:18.381Z,24.80
2018-07-07T17:44:47.770Z,24.80
2018-07-07T17:47:17.155Z,24.70
2018-07-07T17:49:46.569Z,24.80
2018-07-07T17:52:16.047Z,24.70
2018-07-07T17:54:45.411Z,24.60
2018-07-07T17:57:14.756Z,24.70
2018-07-07T17:59:44.083Z,24.60
2018-07-07T18:02:13.458Z,24.60
2018-07-07T18:04:42.844Z,24.50
2018-07-07T18:07:12.160Z,24.50
2018-07-07T18:09:41.494Z,24.50
2018-07-07T18:12:10.828Z,24.40
2018-07-07T18:14:40.179Z,24.30
2018-07-07T18:19:38.408Z,24.10
2018-07-07T18:22:07.719Z,24.10
2018-07-07T18:24:37.133Z,24.20
2018-07-07T18:27:06.545Z,24.20
2018-07-07T18:29:36.362Z,24.20
2018-07-07T18:32:05.716Z,24.10
2018-07-07T18:34:35.140Z,24.00
2018-07-07T18:37:04.463Z,24.00
2018-07-07T18:39:33.788Z,23.90
2018-07-07T18:42:03.119Z,23.90
2018-07-07T18:44:32.465Z,23.90
2018-07-07T18:47:01.796Z,23.60
2018-07-07T18:49:31.163Z,23.60
2018-07-07T18:52:00.624Z,23.50
2018-07-07T18:54:30.006Z,23.40
2018-07-07T18:56:59.324Z,23.10
2018-07-07T18:59:28.685Z,22.90
2018-07-07T19:01:58.048Z,22.70
2018-07-07T19:04:27.485Z,22.60
2018-07-07T19:06:56.835Z,22.40
2018-07-07T19:09:26.173Z,22.30
2018-07-07T19:11:55.542Z,22.20
2018-07-07T19:14:24.897Z,22.10
2018-07-07T19:16:54.243Z,21.90
2018-07-07T19:19:23.653Z,21.80
2018-07-07T19:21:58.155Z,21.80
2018-07-07T19:24:33.020Z,21.80
2018-07-07T19:27:06.689Z,21.70
2018-07-07T19:29:36.052Z,21.60
2018-07-07T19:32:10.680Z,21.60
2018-07-07T19:34:45.330Z,21.70
2018-07-07T19:37:19.441Z,21.50
2018-07-07T19:39:48.819Z,21.60
2018-07-07T19:42:18.195Z,21.50
2018-07-07T19:44:47.547Z,21.40
2018-07-07T19:47:16.891Z,21.30
2018-07-07T19:49:47.053Z,21.10
2018-07-07T19:52:16.397Z,21.10
2018-07-07T19:54:45.730Z,21.20
2018-07-07T19:57:15.509Z,21.10
2018-07-07T19:59:44.946Z,21.10
2018-07-07T20:02:14.655Z,21.20
2018-07-07T20:04:44.052Z,21.10
2018-07-07T20:07:13.392Z,20.80
2018-07-07T20:09:42.787Z,20.80
2018-07-07T20:12:12.160Z,21.00
2018-07-07T20:14:41.867Z,20.80
2018-07-07T20:17:12.514Z,20.70
2018-07-07T20:20:59.665Z,20.70
2018-07-07T20:23:29.973Z,20.70
2018-07-07T20:26:02.068Z,20.60
2018-07-07T20:28:36.688Z,20.50
2018-07-07T20:31:06.068Z,20.40
2018-07-07T20:33:35.400Z,20.40
2018-07-07T20:36:04.779Z,20.30
2018-07-07T20:38:34.210Z,20.30
2018-07-07T20:41:03.575Z,20.30
2018-07-07T20:43:32.912Z,20.30
2018-07-07T20:46:02.267Z,20.10
2018-07-07T20:48:31.578Z,20.20
2018-07-07T20:51:00.928Z,20.10
2018-07-07T20:53:30.259Z,20.10
2018-07-07T20:55:59.635Z,20.10
2018-07-07T20:58:28.956Z,20.00
2018-07-07T21:00:58.338Z,19.80
2018-07-07T21:03:27.688Z,19.60
2018-07-07T21:05:57.023Z,19.30
2018-07-07T21:08:26.432Z,19.10
2018-07-07T21:10:55.810Z,19.10
2018-07-07T21:13:25.115Z,19.10
2018-07-07T21:18:23.312Z,19.30
2018-07-07T21:20:52.690Z,19.50
2018-07-07T21:23:22.024Z,19.20
2018-07-07T21:25:51.487Z,19.30
2018-07-07T21:28:21.284Z,19.20
2018-07-07T21:30:50.656Z,19.30
2018-07-07T21:33:19.961Z,19.40
2018-07-07T21:35:49.295Z,19.20
2018-07-07T21:38:18.668Z,19.30
2018-07-07T21:40:48.050Z,19.30
2018-07-07T21:43:17.967Z,19.20
2018-07-07T21:45:47.383Z,19.00
2018-07-07T21:48:16.695Z,19.00
2018-07-07T21:50:46.183Z,18.80
2018-07-07T21:53:15.496Z,18.90
2018-07-07T21:55:45.104Z,18.80
2018-07-07T21:58:19.669Z,18.90
2018-07-07T22:01:05.399Z,18.80
2018-07-07T22:03:40.014Z,18.80
2018-07-07T22:06:11.448Z,18.70
2018-07-07T22:08:40.802Z,18.60
2018-07-07T22:11:10.180Z,18.60
2018-07-07T22:13:39.583Z,18.60
2018-07-07T22:16:08.956Z,18.50
2018-07-07T22:18:38.294Z,18.10
2018-07-07T22:21:18.821Z,17.80
2018-07-07T22:23:48.268Z,17.80
2018-07-07T22:26:17.755Z,17.70
2018-07-07T22:28:47.173Z,17.50
2018-07-07T22:31:16.748Z,17.40
2018-07-07T22:33:46.218Z,17.70
2018-07-07T22:36:20.877Z,18.00
2018-07-07T22:38:56.436Z,18.10
2018-07-07T22:44:28.181Z,18.10
2018-07-07T22:46:57.789Z,18.20
2018-07-07T22:49:27.872Z,18.00
2018-07-07T22:51:57.248Z,18.00
2018-07-07T22:54:26.553Z,18.00
2018-07-07T22:56:56.074Z,18.00
2018-07-07T22:59:25.790Z,17.90
2018-07-07T23:01:55.276Z,17.60
2018-07-07T23:04:24.706Z,17.50
2018-07-07T23:06:54.191Z,17.60
2018-07-07T23:09:23.523Z,17.60
2018-07-07T23:11:53.058Z,17.30
2018-07-07T23:14:22.511Z,17.50
2018-07-07T23:16:51.915Z,17.50
2018-07-07T23:19:21.433Z,17.50
2018-07-07T23:21:50.890Z,17.30
2018-07-07T23:24:20.320Z,17.40
2018-07-07T23:26:49.694Z,17.30
2018-07-07T23:29:19.057Z,17.50
2018-07-07T23:31:48.716Z,17.40
2018-07-07T23:34:18.072Z,17.40
2018-07-07T23:36:47.403Z,17.50
2018-07-07T23:39:16.766Z,17.30
2018-07-07T23:41:46.146Z,17.50
2018-07-07T23:44:15.574Z,17.60
2018-07-07T23:46:45.000Z,17.60
2018-07-07T23:51:43.510Z,17.60
2018-07-07T23:54:12.903Z,17.20
2018-07-07T23:56:42.383Z,17.00
2018-07-07T23:59:11.855Z,17.20
